Midway, Washington
Current Conditions -  °F | °C
As of 7:53 AM on Friday 31 Oct 2014 (Local Time) from KSEA Reporting Station
Moderate Rain Moderate Rain  
Wind Chill: 51°   Ceiling: 300
Heat Index: 51°   Visibility: 0.5mi
Dew Point: 49°   Wind: 6mph
Humidity: 92%   Direction: 240°WSW
Pressure: 29.71"   Gusts: NA
Location:  47.3871°N, 122.202°W
Report Text: KSEA 311453Z 24005KT 1/2SM R16L/3000VP6000FT RA BR BKN003 OVC008 11/09 A2971 RMK AO2 SFC VIS 1 1/2 SLP066 P0007 60013 T01060094 55002
Loading
Personal Weather Stations






























Interactive Weather Map
Tropical Storm Tracking
New forecast layout! Learn more

10-Day Weather Forecast

Advertisements
Track Severe Weather on mobile